TAF and METAR

Decoding for American and Canadian METARs and TAFs is not fully implemented.

Could not understand the following METAR

KSDL 020753Z AUTO 30005KT 10SM CLR 31/01 A2987 RMK AO2 SLP086 T03060011

TAF for Scottsdale Airport

KSDL 020536Z 0206/0306 VRB03KT P6SM SCT100 FM021700 16005KT P6SM BKN100 FM022100 23008KT P6SM SCT100 FM030300 VRB06KT P6SM SCT120 BKN150
Report created 2. jul 07:36

between 2. jul 08:00 - 3. jul 08:00

wind 3 knots from various directions